Streeter, North Dakota
Current Conditions -  °F | °C
As of 8:08 PM on Friday 19 Dec 2014 (Local Time) from KJMS Reporting Station
Moderate Fog Moderate Fog  
Wind Chill: 17°   Ceiling: 200
Heat Index: 23°   Visibility: 0.25mi
Dew Point: 22°   Wind: 5mph
Humidity: 96%   Direction: 190°S
Pressure: 29.95"   Gusts: NA
Location:  46.66°N, 99.35°W
Report Text: KJMS 200208Z AUTO 19004KT 1/4SM FZFG VV002 M05/M06 A2995 RMK AO2 T10501056
Loading
Personal Weather Stations






























Interactive Weather Map New forecast layout! Learn more

10-Day Weather Forecast

Advertisements
Track Severe Weather on mobile